sensor_id;sensor_type;location;lat;lon;timestamp;temperature;humidity
5280;DHT22;2663;53.588;10.010;2023-03-23T00:00:28;12.20;99.90
5280;DHT22;2663;53.588;10.010;2023-03-23T00:02:54;12.20;99.90
5280;DHT22;2663;53.588;10.010;2023-03-23T00:05:20;12.20;99.90
5280;DHT22;2663;53.588;10.010;2023-03-23T00:07:45;12.10;99.90
5280;DHT22;2663;53.588;10.010;2023-03-23T00:10:11;12.00;99.90
5280;DHT22;2663;53.588;10.010;2023-03-23T00:12:37;11.90;99.90
5280;DHT22;2663;53.588;10.010;2023-03-23T00:15:04;11.90;99.90
5280;DHT22;2663;53.588;10.010;2023-03-23T00:17:31;11.90;99.90
5280;DHT22;2663;53.588;10.010;2023-03-23T00:20:00;11.80;99.90
5280;DHT22;2663;53.588;10.010;2023-03-23T00:22:29;11.80;99.90
5280;DHT22;2663;53.588;10.010;2023-03-23T00:24:54;11.80;99.90
5280;DHT22;2663;53.588;10.010;2023-03-23T00:27:22;11.80;99.90
5280;DHT22;2663;53.588;10.010;2023-03-23T00:29:51;11.70;99.90
5280;DHT22;2663;53.588;10.010;2023-03-23T00:32:22;11.70;99.90
5280;DHT22;2663;53.588;10.010;2023-03-23T00:34:53;11.70;99.90
5280;DHT22;2663;53.588;10.010;2023-03-23T00:37:18;11.70;99.90
5280;DHT22;2663;53.588;10.010;2023-03-23T00:39:44;11.70;99.90
5280;DHT22;2663;53.588;10.010;2023-03-23T00:42:12;11.70;99.90
5280;DHT22;2663;53.588;10.010;2023-03-23T00:44:39;11.80;99.90
5280;DHT22;2663;53.588;10.010;2023-03-23T00:47:05;11.80;99.90
5280;DHT22;2663;53.588;10.010;2023-03-23T00:49:31;11.80;99.90
5280;DHT22;2663;53.588;10.010;2023-03-23T00:52:00;11.70;99.90
5280;DHT22;2663;53.588;10.010;2023-03-23T00:54:26;11.80;99.90
5280;DHT22;2663;53.588;10.010;2023-03-23T00:56:53;11.80;99.90
5280;DHT22;2663;53.588;10.010;2023-03-23T00:59:19;11.80;99.90
5280;DHT22;2663;53.588;10.010;2023-03-23T01:01:45;11.90;99.90
5280;DHT22;2663;53.588;10.010;2023-03-23T01:04:11;11.90;99.90
5280;DHT22;2663;53.588;10.010;2023-03-23T01:06:39;11.80;99.90
5280;DHT22;2663;53.588;10.010;2023-03-23T01:09:11;11.80;99.90
5280;DHT22;2663;53.588;10.010;2023-03-23T01:11:36;11.90;99.90
5280;DHT22;2663;53.588;10.010;2023-03-23T01:14:04;11.80;99.90
5280;DHT22;2663;53.588;10.010;2023-03-23T01:16:29;11.80;99.90
5280;DHT22;2663;53.588;10.010;2023-03-23T01:18:55;11.90;99.90
5280;DHT22;2663;53.588;10.010;2023-03-23T01:21:21;11.80;99.90
5280;DHT22;2663;53.588;10.010;2023-03-23T01:23:47;12.00;99.90
5280;DHT22;2663;53.588;10.010;2023-03-23T01:26:16;12.10;99.90
5280;DHT22;2663;53.588;10.010;2023-03-23T01:28:42;12.10;99.90
5280;DHT22;2663;53.588;10.010;2023-03-23T01:31:14;12.10;99.90
5280;DHT22;2663;53.588;10.010;2023-03-23T01:33:41;12.00;99.90
5280;DHT22;2663;53.588;10.010;2023-03-23T01:36:10;12.00;99.90
5280;DHT22;2663;53.588;10.010;2023-03-23T01:38:35;12.10;99.90
5280;DHT22;2663;53.588;10.010;2023-03-23T01:41:02;12.00;99.90
5280;DHT22;2663;53.588;10.010;2023-03-23T01:43:28;11.90;99.90
5280;DHT22;2663;53.588;10.010;2023-03-23T01:45:54;11.90;99.90
5280;DHT22;2663;53.588;10.010;2023-03-23T01:48:25;11.80;99.90
5280;DHT22;2663;53.588;10.010;2023-03-23T01:50:58;11.80;99.90
5280;DHT22;2663;53.588;10.010;2023-03-23T01:53:37;11.80;99.90
5280;DHT22;2663;53.588;10.010;2023-03-23T01:56:04;11.80;99.90
5280;DHT22;2663;53.588;10.010;2023-03-23T01:58:32;11.80;99.90
5280;DHT22;2663;53.588;10.010;2023-03-23T02:01:03;11.90;99.90
5280;DHT22;2663;53.588;10.010;2023-03-23T02:03:29;11.90;99.90
5280;DHT22;2663;53.588;10.010;2023-03-23T02:05:57;11.90;99.90
5280;DHT22;2663;53.588;10.010;2023-03-23T02:08:29;11.90;99.90
5280;DHT22;2663;53.588;10.010;2023-03-23T02:10:55;11.90;99.90
5280;DHT22;2663;53.588;10.010;2023-03-23T02:13:21;11.90;99.90
5280;DHT22;2663;53.588;10.010;2023-03-23T02:21:43;11.70;99.90
5280;DHT22;2663;53.588;10.010;2023-03-23T03:15:55;11.60;99.90
5280;DHT22;2663;53.588;10.010;2023-03-23T03:18:32;11.80;99.90
5280;DHT22;2663;53.588;10.010;2023-03-23T03:21:03;11.80;99.90
5280;DHT22;2663;53.588;10.010;2023-03-23T03:23:31;11.90;99.90
5280;DHT22;2663;53.588;10.010;2023-03-23T03:25:58;11.90;99.90
5280;DHT22;2663;53.588;10.010;2023-03-23T03:28:25;11.90;99.90
5280;DHT22;2663;53.588;10.010;2023-03-23T03:30:56;11.90;99.90
5280;DHT22;2663;53.588;10.010;2023-03-23T03:33:26;11.90;99.90
5280;DHT22;2663;53.588;10.010;2023-03-23T03:35:57;11.90;99.90
5280;DHT22;2663;53.588;10.010;2023-03-23T03:38:24;12.00;99.90
5280;DHT22;2663;53.588;10.010;2023-03-23T03:40:50;12.00;99.90
5280;DHT22;2663;53.588;10.010;2023-03-23T03:43:16;12.00;99.90
5280;DHT22;2663;53.588;10.010;2023-03-23T03:45:41;12.00;99.90
5280;DHT22;2663;53.588;10.010;2023-03-23T03:48:07;12.10;99.90
5280;DHT22;2663;53.588;10.010;2023-03-23T03:50:33;12.10;99.90
5280;DHT22;2663;53.588;10.010;2023-03-23T03:52:59;12.10;99.90
5280;DHT22;2663;53.588;10.010;2023-03-23T03:55:25;12.00;99.90
5280;DHT22;2663;53.588;10.010;2023-03-23T03:57:50;12.10;99.90
5280;DHT22;2663;53.588;10.010;2023-03-23T04:00:16;12.00;99.90
5280;DHT22;2663;53.588;10.010;2023-03-23T04:02:44;12.00;99.90
5280;DHT22;2663;53.588;10.010;2023-03-23T04:05:13;12.00;99.90
5280;DHT22;2663;53.588;10.010;2023-03-23T04:07:39;12.00;99.90
5280;DHT22;2663;53.588;10.010;2023-03-23T04:10:06;12.00;99.90
5280;DHT22;2663;53.588;10.010;2023-03-23T04:12:32;12.00;99.90
5280;DHT22;2663;53.588;10.010;2023-03-23T04:14:58;12.00;99.90
5280;DHT22;2663;53.588;10.010;2023-03-23T04:17:23;12.10;99.90
5280;DHT22;2663;53.588;10.010;2023-03-23T04:19:52;12.10;99.90
5280;DHT22;2663;53.588;10.010;2023-03-23T04:22:26;12.10;99.90
5280;DHT22;2663;53.588;10.010;2023-03-23T04:24:57;12.30;99.90
5280;DHT22;2663;53.588;10.010;2023-03-23T04:27:25;12.10;99.90
5280;DHT22;2663;53.588;10.010;2023-03-23T04:29:51;12.10;99.90
5280;DHT22;2663;53.588;10.010;2023-03-23T04:32:16;12.10;99.90
5280;DHT22;2663;53.588;10.010;2023-03-23T04:34:43;12.10;99.90
5280;DHT22;2663;53.588;10.010;2023-03-23T04:37:09;12.10;99.90
5280;DHT22;2663;53.588;10.010;2023-03-23T04:39:35;12.00;99.90
5280;DHT22;2663;53.588;10.010;2023-03-23T04:42:02;12.00;99.90
5280;DHT22;2663;53.588;10.010;2023-03-23T04:44:28;12.00;99.90
5280;DHT22;2663;53.588;10.010;2023-03-23T04:46:54;12.00;99.90
5280;DHT22;2663;53.588;10.010;2023-03-23T04:49:20;12.00;99.90
5280;DHT22;2663;53.588;10.010;2023-03-23T04:51:46;12.10;99.90
5280;DHT22;2663;53.588;10.010;2023-03-23T04:54:12;12.00;99.90
5280;DHT22;2663;53.588;10.010;2023-03-23T04:56:38;12.10;99.90
5280;DHT22;2663;53.588;10.010;2023-03-23T04:59:03;12.10;99.90
5280;DHT22;2663;53.588;10.010;2023-03-23T05:01:31;12.10;99.90
5280;DHT22;2663;53.588;10.010;2023-03-23T05:03:57;12.00;99.90
5280;DHT22;2663;53.588;10.010;2023-03-23T05:06:22;12.10;99.90
5280;DHT22;2663;53.588;10.010;2023-03-23T05:08:48;12.10;99.90
5280;DHT22;2663;53.588;10.010;2023-03-23T05:11:14;12.10;99.90
5280;DHT22;2663;53.588;10.010;2023-03-23T05:13:39;12.20;99.90
5280;DHT22;2663;53.588;10.010;2023-03-23T05:16:05;12.20;99.90
5280;DHT22;2663;53.588;10.010;2023-03-23T05:18:32;12.20;99.90
5280;DHT22;2663;53.588;10.010;2023-03-23T05:21:01;12.20;99.90
5280;DHT22;2663;53.588;10.010;2023-03-23T05:23:28;12.20;99.90
5280;DHT22;2663;53.588;10.010;2023-03-23T05:25:57;12.30;99.90
5280;DHT22;2663;53.588;10.010;2023-03-23T05:28:26;12.20;99.90
5280;DHT22;2663;53.588;10.010;2023-03-23T05:30:53;12.20;99.90
5280;DHT22;2663;53.588;10.010;2023-03-23T05:33:19;12.20;99.90
5280;DHT22;2663;53.588;10.010;2023-03-23T05:35:46;12.20;99.90
5280;DHT22;2663;53.588;10.010;2023-03-23T05:38:13;12.20;99.90
5280;DHT22;2663;53.588;10.010;2023-03-23T05:40:40;12.20;99.90
5280;DHT22;2663;53.588;10.010;2023-03-23T05:43:07;12.10;99.90
5280;DHT22;2663;53.588;10.010;2023-03-23T05:45:33;12.20;99.90
5280;DHT22;2663;53.588;10.010;2023-03-23T05:47:59;12.10;99.90
5280;DHT22;2663;53.588;10.010;2023-03-23T05:50:25;12.10;99.90
5280;DHT22;2663;53.588;10.010;2023-03-23T05:52:51;12.10;99.90
5280;DHT22;2663;53.588;10.010;2023-03-23T05:55:17;12.10;99.90
5280;DHT22;2663;53.588;10.010;2023-03-23T05:57:43;12.10;99.90
5280;DHT22;2663;53.588;10.010;2023-03-23T06:00:09;12.20;99.90
5280;DHT22;2663;53.588;10.010;2023-03-23T06:02:40;12.20;99.90
5280;DHT22;2663;53.588;10.010;2023-03-23T06:05:09;12.10;99.90
5280;DHT22;2663;53.588;10.010;2023-03-23T06:07:36;12.10;99.90
5280;DHT22;2663;53.588;10.010;2023-03-23T06:10:04;12.00;99.90
5280;DHT22;2663;53.588;10.010;2023-03-23T06:12:30;12.10;99.90
5280;DHT22;2663;53.588;10.010;2023-03-23T06:14:56;12.00;99.90
5280;DHT22;2663;53.588;10.010;2023-03-23T06:17:22;12.00;99.90
5280;DHT22;2663;53.588;10.010;2023-03-23T06:19:48;12.00;99.90
5280;DHT22;2663;53.588;10.010;2023-03-23T06:22:16;12.20;99.90
5280;DHT22;2663;53.588;10.010;2023-03-23T06:24:42;12.80;99.90
5280;DHT22;2663;53.588;10.010;2023-03-23T06:27:07;13.10;99.90
5280;DHT22;2663;53.588;10.010;2023-03-23T06:29:34;12.70;99.90
5280;DHT22;2663;53.588;10.010;2023-03-23T06:32:01;12.40;99.90
5280;DHT22;2663;53.588;10.010;2023-03-23T06:34:28;12.20;99.90
5280;DHT22;2663;53.588;10.010;2023-03-23T06:36:55;12.20;99.90
5280;DHT22;2663;53.588;10.010;2023-03-23T06:39:21;12.10;99.90
5280;DHT22;2663;53.588;10.010;2023-03-23T06:41:47;12.20;99.90
5280;DHT22;2663;53.588;10.010;2023-03-23T06:44:13;12.20;99.90
5280;DHT22;2663;53.588;10.010;2023-03-23T06:46:40;12.20;99.90
5280;DHT22;2663;53.588;10.010;2023-03-23T06:49:06;12.30;99.90
5280;DHT22;2663;53.588;10.010;2023-03-23T06:51:32;12.30;99.90
5280;DHT22;2663;53.588;10.010;2023-03-23T06:53:58;12.30;99.90
5280;DHT22;2663;53.588;10.010;2023-03-23T06:56:24;12.40;99.90
5280;DHT22;2663;53.588;10.010;2023-03-23T06:58:50;13.30;99.90
5280;DHT22;2663;53.588;10.010;2023-03-23T07:01:16;13.90;99.90
5280;DHT22;2663;53.588;10.010;2023-03-23T07:03:42;14.20;99.90
5280;DHT22;2663;53.588;10.010;2023-03-23T07:06:09;14.30;99.90
5280;DHT22;2663;53.588;10.010;2023-03-23T07:08:35;14.00;99.90
5280;DHT22;2663;53.588;10.010;2023-03-23T07:11:00;13.70;99.90
5280;DHT22;2663;53.588;10.010;2023-03-23T07:13:26;13.10;99.90
5280;DHT22;2663;53.588;10.010;2023-03-23T07:15:52;12.80;99.90
5280;DHT22;2663;53.588;10.010;2023-03-23T07:18:18;12.90;99.90
5280;DHT22;2663;53.588;10.010;2023-03-23T07:20:48;12.70;99.90
5280;DHT22;2663;53.588;10.010;2023-03-23T07:23:14;12.80;99.90
5280;DHT22;2663;53.588;10.010;2023-03-23T07:25:40;12.70;99.90
5280;DHT22;2663;53.588;10.010;2023-03-23T07:28:05;12.70;99.90
5280;DHT22;2663;53.588;10.010;2023-03-23T07:30:32;12.70;99.90
5280;DHT22;2663;53.588;10.010;2023-03-23T07:32:58;12.70;99.90
5280;DHT22;2663;53.588;10.010;2023-03-23T07:35:24;12.80;99.90
5280;DHT22;2663;53.588;10.010;2023-03-23T07:37:51;12.80;99.90
5280;DHT22;2663;53.588;10.010;2023-03-23T07:40:17;13.00;99.90
5280;DHT22;2663;53.588;10.010;2023-03-23T07:42:52;13.10;99.90
5280;DHT22;2663;53.588;10.010;2023-03-23T07:45:18;13.10;99.90
5280;DHT22;2663;53.588;10.010;2023-03-23T07:47:43;13.20;99.90
5280;DHT22;2663;53.588;10.010;2023-03-23T07:50:10;13.20;99.90
5280;DHT22;2663;53.588;10.010;2023-03-23T07:52:37;13.20;99.90
5280;DHT22;2663;53.588;10.010;2023-03-23T07:55:04;13.20;99.90
5280;DHT22;2663;53.588;10.010;2023-03-23T07:57:31;13.00;99.90
5280;DHT22;2663;53.588;10.010;2023-03-23T07:59:58;12.90;99.90
5280;DHT22;2663;53.588;10.010;2023-03-23T08:02:25;12.90;99.90
5280;DHT22;2663;53.588;10.010;2023-03-23T08:04:52;12.90;99.90
5280;DHT22;2663;53.588;10.010;2023-03-23T08:07:19;12.80;99.90
5280;DHT22;2663;53.588;10.010;2023-03-23T08:09:46;12.80;99.90
5280;DHT22;2663;53.588;10.010;2023-03-23T08:12:13;12.80;99.90
5280;DHT22;2663;53.588;10.010;2023-03-23T08:14:39;12.80;99.90
5280;DHT22;2663;53.588;10.010;2023-03-23T08:17:07;12.80;99.90
5280;DHT22;2663;53.588;10.010;2023-03-23T08:19:34;12.80;99.90
5280;DHT22;2663;53.588;10.010;2023-03-23T08:22:03;12.70;99.90
5280;DHT22;2663;53.588;10.010;2023-03-23T08:24:30;12.70;99.90
5280;DHT22;2663;53.588;10.010;2023-03-23T08:26:56;12.70;99.90
5280;DHT22;2663;53.588;10.010;2023-03-23T08:29:22;12.70;99.90
5280;DHT22;2663;53.588;10.010;2023-03-23T08:31:47;12.40;99.90
5280;DHT22;2663;53.588;10.010;2023-03-23T08:34:13;12.10;99.90
5280;DHT22;2663;53.588;10.010;2023-03-23T08:36:39;11.90;99.90
5280;DHT22;2663;53.588;10.010;2023-03-23T08:39:05;11.90;99.90
5280;DHT22;2663;53.588;10.010;2023-03-23T08:41:31;12.00;99.90
5280;DHT22;2663;53.588;10.010;2023-03-23T08:43:57;11.90;99.90
5280;DHT22;2663;53.588;10.010;2023-03-23T08:46:23;11.90;99.90
5280;DHT22;2663;53.588;10.010;2023-03-23T08:48:48;12.00;99.90
5280;DHT22;2663;53.588;10.010;2023-03-23T08:51:14;12.10;99.90
5280;DHT22;2663;53.588;10.010;2023-03-23T08:53:40;12.10;99.90
5280;DHT22;2663;53.588;10.010;2023-03-23T08:56:07;12.10;99.90
5280;DHT22;2663;53.588;10.010;2023-03-23T08:58:37;12.30;99.90
5280;DHT22;2663;53.588;10.010;2023-03-23T09:01:04;12.40;99.90
5280;DHT22;2663;53.588;10.010;2023-03-23T09:03:32;12.50;99.90
5280;DHT22;2663;53.588;10.010;2023-03-23T09:06:03;12.50;99.90
5280;DHT22;2663;53.588;10.010;2023-03-23T09:08:29;12.10;99.90
5280;DHT22;2663;53.588;10.010;2023-03-23T09:10:59;12.60;99.90
5280;DHT22;2663;53.588;10.010;2023-03-23T09:13:25;12.60;99.90
5280;DHT22;2663;53.588;10.010;2023-03-23T09:15:51;12.70;99.90
5280;DHT22;2663;53.588;10.010;2023-03-23T09:18:18;12.80;99.90
5280;DHT22;2663;53.588;10.010;2023-03-23T09:20:44;12.70;99.90
5280;DHT22;2663;53.588;10.010;2023-03-23T09:23:11;12.60;99.90
5280;DHT22;2663;53.588;10.010;2023-03-23T09:25:38;12.60;99.90
5280;DHT22;2663;53.588;10.010;2023-03-23T09:28:04;12.70;99.90
5280;DHT22;2663;53.588;10.010;2023-03-23T09:30:32;12.60;99.90
5280;DHT22;2663;53.588;10.010;2023-03-23T09:33:00;12.60;99.90
5280;DHT22;2663;53.588;10.010;2023-03-23T09:35:27;12.60;99.90
5280;DHT22;2663;53.588;10.010;2023-03-23T09:37:53;12.70;99.90
5280;DHT22;2663;53.588;10.010;2023-03-23T09:40:46;12.70;99.90
5280;DHT22;2663;53.588;10.010;2023-03-23T09:52:16;12.70;99.90
5280;DHT22;2663;53.588;10.010;2023-03-23T09:54:48;12.20;99.90
5280;DHT22;2663;53.588;10.010;2023-03-23T09:57:41;12.80;99.90
5280;DHT22;2663;53.588;10.010;2023-03-23T10:00:14;12.90;99.90
5280;DHT22;2663;53.588;10.010;2023-03-23T10:03:00;13.00;99.90
5280;DHT22;2663;53.588;10.010;2023-03-23T10:05:40;13.10;99.90
5280;DHT22;2663;53.588;10.010;2023-03-23T10:08:21;13.10;99.90
5280;DHT22;2663;53.588;10.010;2023-03-23T10:11:01;13.20;99.90
5280;DHT22;2663;53.588;10.010;2023-03-23T10:13:32;13.20;99.90
5280;DHT22;2663;53.588;10.010;2023-03-23T10:16:03;11.80;99.90
5280;DHT22;2663;53.588;10.010;2023-03-23T10:18:41;13.10;99.90
5280;DHT22;2663;53.588;10.010;2023-03-23T10:21:13;13.30;99.90
5280;DHT22;2663;53.588;10.010;2023-03-23T10:23:56;13.90;99.90
5280;DHT22;2663;53.588;10.010;2023-03-23T10:31:43;13.50;99.90
5280;DHT22;2663;53.588;10.010;2023-03-23T10:34:27;13.40;99.90
5280;DHT22;2663;53.588;10.010;2023-03-23T10:37:03;13.30;99.90
5280;DHT22;2663;53.588;10.010;2023-03-23T10:39:47;13.50;99.90
5280;DHT22;2663;53.588;10.010;2023-03-23T10:42:22;13.60;99.90
5280;DHT22;2663;53.588;10.010;2023-03-23T10:44:49;13.70;99.90
5280;DHT22;2663;53.588;10.010;2023-03-23T10:47:14;13.70;99.90
5280;DHT22;2663;53.588;10.010;2023-03-23T10:49:45;13.70;99.90
5280;DHT22;2663;53.588;10.010;2023-03-23T10:55:13;13.70;99.90
5280;DHT22;2663;53.588;10.010;2023-03-23T10:57:43;13.60;99.90
5280;DHT22;2663;53.588;10.010;2023-03-23T11:00:21;13.60;99.90
5280;DHT22;2663;53.588;10.010;2023-03-23T11:02:57;13.60;99.90
5280;DHT22;2663;53.588;10.010;2023-03-23T11:05:27;13.70;99.90
5280;DHT22;2663;53.588;10.010;2023-03-23T11:07:58;13.70;99.90
5280;DHT22;2663;53.588;10.010;2023-03-23T11:13:16;13.80;99.90
5280;DHT22;2663;53.588;10.010;2023-03-23T11:15:44;13.90;99.90
5280;DHT22;2663;53.588;10.010;2023-03-23T11:18:26;13.90;99.90
5280;DHT22;2663;53.588;10.010;2023-03-23T11:20:58;14.00;99.90
5280;DHT22;2663;53.588;10.010;2023-03-23T11:23:36;14.00;99.90
5280;DHT22;2663;53.588;10.010;2023-03-23T11:26:15;14.10;99.90
5280;DHT22;2663;53.588;10.010;2023-03-23T11:29:04;14.00;99.90
5280;DHT22;2663;53.588;10.010;2023-03-23T11:31:41;14.10;99.90
5280;DHT22;2663;53.588;10.010;2023-03-23T11:34:19;14.00;99.90
5280;DHT22;2663;53.588;10.010;2023-03-23T11:37:00;13.90;99.90
5280;DHT22;2663;53.588;10.010;2023-03-23T11:39:32;13.90;99.90
5280;DHT22;2663;53.588;10.010;2023-03-23T11:42:01;13.90;99.90
5280;DHT22;2663;53.588;10.010;2023-03-23T11:44:34;14.30;99.90
5280;DHT22;2663;53.588;10.010;2023-03-23T11:47:48;14.60;99.90
5280;DHT22;2663;53.588;10.010;2023-03-23T11:50:17;14.80;99.90
5280;DHT22;2663;53.588;10.010;2023-03-23T11:52:59;14.70;99.90
5280;DHT22;2663;53.588;10.010;2023-03-23T11:56:03;14.50;99.90
5280;DHT22;2663;53.588;10.010;2023-03-23T11:58:21;14.30;99.90
5280;DHT22;2663;53.588;10.010;2023-03-23T12:01:18;14.00;99.90
5280;DHT22;2663;53.588;10.010;2023-03-23T12:07:06;13.70;99.90
5280;DHT22;2663;53.588;10.010;2023-03-23T12:12:30;13.70;99.90
5280;DHT22;2663;53.588;10.010;2023-03-23T12:15:07;13.70;99.90
5280;DHT22;2663;53.588;10.010;2023-03-23T12:26:03;13.60;99.90
5280;DHT22;2663;53.588;10.010;2023-03-23T12:28:45;13.60;99.90
5280;DHT22;2663;53.588;10.010;2023-03-23T12:31:25;13.50;99.90
5280;DHT22;2663;53.588;10.010;2023-03-23T12:40:00;13.40;99.90
5280;DHT22;2663;53.588;10.010;2023-03-23T12:47:57;13.50;99.90
5280;DHT22;2663;53.588;10.010;2023-03-23T12:53:22;13.40;99.90
5280;DHT22;2663;53.588;10.010;2023-03-23T12:56:04;13.40;99.90
5280;DHT22;2663;53.588;10.010;2023-03-23T12:58:39;13.40;99.90
5280;DHT22;2663;53.588;10.010;2023-03-23T13:01:11;13.50;99.90
5280;DHT22;2663;53.588;10.010;2023-03-23T13:03:53;13.60;99.90
5280;DHT22;2663;53.588;10.010;2023-03-23T13:06:34;13.80;99.90
5280;DHT22;2663;53.588;10.010;2023-03-23T13:09:19;14.00;99.90
5280;DHT22;2663;53.588;10.010;2023-03-23T13:11:47;14.10;99.90
5280;DHT22;2663;53.588;10.010;2023-03-23T13:22:21;14.30;99.90
5280;DHT22;2663;53.588;10.010;2023-03-23T13:24:58;14.20;99.90
5280;DHT22;2663;53.588;10.010;2023-03-23T13:27:27;14.50;99.90
5280;DHT22;2663;53.588;10.010;2023-03-23T13:29:57;14.50;99.90
5280;DHT22;2663;53.588;10.010;2023-03-23T13:32:35;14.50;99.90
5280;DHT22;2663;53.588;10.010;2023-03-23T13:35:05;14.60;99.90
5280;DHT22;2663;53.588;10.010;2023-03-23T13:37:41;14.70;99.90
5280;DHT22;2663;53.588;10.010;2023-03-23T13:42:48;14.30;99.90
5280;DHT22;2663;53.588;10.010;2023-03-23T13:45:24;14.40;99.90
5280;DHT22;2663;53.588;10.010;2023-03-23T13:51:00;14.30;99.90
5280;DHT22;2663;53.588;10.010;2023-03-23T13:53:35;14.30;99.90
5280;DHT22;2663;53.588;10.010;2023-03-23T13:56:34;14.20;99.90
5280;DHT22;2663;53.588;10.010;2023-03-23T14:02:31;14.10;99.90
5280;DHT22;2663;53.588;10.010;2023-03-23T14:05:22;13.80;99.90
5280;DHT22;2663;53.588;10.010;2023-03-23T14:07:54;12.90;99.90
5280;DHT22;2663;53.588;10.010;2023-03-23T14:10:21;12.00;99.90
5280;DHT22;2663;53.588;10.010;2023-03-23T14:12:50;11.60;99.90
5280;DHT22;2663;53.588;10.010;2023-03-23T14:15:17;11.30;99.90
5280;DHT22;2663;53.588;10.010;2023-03-23T14:17:44;11.30;99.90
5280;DHT22;2663;53.588;10.010;2023-03-23T14:20:21;11.20;99.90
5280;DHT22;2663;53.588;10.010;2023-03-23T14:22:53;11.10;99.90
5280;DHT22;2663;53.588;10.010;2023-03-23T14:25:20;11.20;99.90
5280;DHT22;2663;53.588;10.010;2023-03-23T14:27:46;11.40;99.90
5280;DHT22;2663;53.588;10.010;2023-03-23T14:30:19;11.50;99.90
5280;DHT22;2663;53.588;10.010;2023-03-23T14:32:45;11.80;99.90
5280;DHT22;2663;53.588;10.010;2023-03-23T14:35:31;12.30;99.90
5280;DHT22;2663;53.588;10.010;2023-03-23T14:37:57;12.90;99.90
5280;DHT22;2663;53.588;10.010;2023-03-23T14:40:26;13.40;99.90
5280;DHT22;2663;53.588;10.010;2023-03-23T14:42:52;14.00;99.90
5280;DHT22;2663;53.588;10.010;2023-03-23T14:45:20;14.30;99.90
5280;DHT22;2663;53.588;10.010;2023-03-23T14:47:49;14.70;99.90
5280;DHT22;2663;53.588;10.010;2023-03-23T14:50:38;14.80;99.90
5280;DHT22;2663;53.588;10.010;2023-03-23T14:55:47;14.90;99.90
5280;DHT22;2663;53.588;10.010;2023-03-23T14:58:14;14.80;99.90
5280;DHT22;2663;53.588;10.010;2023-03-23T15:00:46;14.90;99.90
5280;DHT22;2663;53.588;10.010;2023-03-23T15:03:16;14.70;99.90
5280;DHT22;2663;53.588;10.010;2023-03-23T15:05:55;14.80;99.90
5280;DHT22;2663;53.588;10.010;2023-03-23T15:08:33;15.00;99.90
5280;DHT22;2663;53.588;10.010;2023-03-23T15:13:34;14.30;99.90
5280;DHT22;2663;53.588;10.010;2023-03-23T15:16:17;13.90;99.90
5280;DHT22;2663;53.588;10.010;2023-03-23T15:18:50;13.60;99.90
5280;DHT22;2663;53.588;10.010;2023-03-23T15:23:57;13.40;99.90
5280;DHT22;2663;53.588;10.010;2023-03-23T15:26:31;13.30;99.90
5280;DHT22;2663;53.588;10.010;2023-03-23T15:29:11;13.30;99.90
5280;DHT22;2663;53.588;10.010;2023-03-23T15:31:46;13.40;99.90
5280;DHT22;2663;53.588;10.010;2023-03-23T15:34:33;13.30;99.90
5280;DHT22;2663;53.588;10.010;2023-03-23T15:37:13;13.40;99.90
5280;DHT22;2663;53.588;10.010;2023-03-23T15:39:42;13.30;99.90
5280;DHT22;2663;53.588;10.010;2023-03-23T15:45:20;13.20;99.90
5280;DHT22;2663;53.588;10.010;2023-03-23T15:50:14;13.80;99.90
5280;DHT22;2663;53.588;10.010;2023-03-23T15:52:41;14.10;99.90
5280;DHT22;2663;53.588;10.010;2023-03-23T15:55:37;13.80;99.90
5280;DHT22;2663;53.588;10.010;2023-03-23T15:58:11;13.50;99.90
5280;DHT22;2663;53.588;10.010;2023-03-23T16:00:39;13.30;99.90
5280;DHT22;2663;53.588;10.010;2023-03-23T16:03:10;13.20;99.90
5280;DHT22;2663;53.588;10.010;2023-03-23T16:05:38;13.30;99.90
5280;DHT22;2663;53.588;10.010;2023-03-23T16:08:07;13.30;99.90
5280;DHT22;2663;53.588;10.010;2023-03-23T16:10:34;13.10;99.90
5280;DHT22;2663;53.588;10.010;2023-03-23T16:13:00;13.20;99.90
5280;DHT22;2663;53.588;10.010;2023-03-23T16:15:27;13.10;99.90
5280;DHT22;2663;53.588;10.010;2023-03-23T16:17:54;13.20;99.90
5280;DHT22;2663;53.588;10.010;2023-03-23T16:20:22;13.10;99.90
5280;DHT22;2663;53.588;10.010;2023-03-23T16:22:50;13.00;99.90
5280;DHT22;2663;53.588;10.010;2023-03-23T16:25:17;12.90;99.90
5280;DHT22;2663;53.588;10.010;2023-03-23T16:27:45;12.90;99.90
5280;DHT22;2663;53.588;10.010;2023-03-23T16:30:23;12.90;99.90
5280;DHT22;2663;53.588;10.010;2023-03-23T16:32:50;12.90;99.90
5280;DHT22;2663;53.588;10.010;2023-03-23T16:35:17;13.00;99.90
5280;DHT22;2663;53.588;10.010;2023-03-23T16:37:53;13.10;99.90
5280;DHT22;2663;53.588;10.010;2023-03-23T16:40:34;13.00;99.90
5280;DHT22;2663;53.588;10.010;2023-03-23T16:43:01;12.90;99.90
5280;DHT22;2663;53.588;10.010;2023-03-23T16:45:36;13.10;99.90
5280;DHT22;2663;53.588;10.010;2023-03-23T16:48:03;13.20;99.90
5280;DHT22;2663;53.588;10.010;2023-03-23T16:50:31;13.30;99.90
5280;DHT22;2663;53.588;10.010;2023-03-23T16:52:58;13.20;99.90
5280;DHT22;2663;53.588;10.010;2023-03-23T16:55:24;13.10;99.90
5280;DHT22;2663;53.588;10.010;2023-03-23T16:57:53;12.90;99.90
5280;DHT22;2663;53.588;10.010;2023-03-23T17:00:34;12.90;99.90
5280;DHT22;2663;53.588;10.010;2023-03-23T17:03:01;12.90;99.90
5280;DHT22;2663;53.588;10.010;2023-03-23T17:05:28;12.90;99.90
5280;DHT22;2663;53.588;10.010;2023-03-23T17:07:56;12.90;99.90
5280;DHT22;2663;53.588;10.010;2023-03-23T17:10:25;12.20;99.90
5280;DHT22;2663;53.588;10.010;2023-03-23T17:12:53;12.80;99.90
5280;DHT22;2663;53.588;10.010;2023-03-23T17:15:21;12.80;99.90
5280;DHT22;2663;53.588;10.010;2023-03-23T17:17:50;12.70;99.90
5280;DHT22;2663;53.588;10.010;2023-03-23T17:20:17;12.80;99.90
5280;DHT22;2663;53.588;10.010;2023-03-23T17:22:44;12.80;99.90
5280;DHT22;2663;53.588;10.010;2023-03-23T17:25:11;12.80;99.90
5280;DHT22;2663;53.588;10.010;2023-03-23T17:27:38;12.60;99.90
5280;DHT22;2663;53.588;10.010;2023-03-23T17:30:06;12.60;99.90
5280;DHT22;2663;53.588;10.010;2023-03-23T17:32:33;12.70;99.90
5280;DHT22;2663;53.588;10.010;2023-03-23T17:35:00;12.70;99.90
5280;DHT22;2663;53.588;10.010;2023-03-23T17:37:27;12.70;99.90
5280;DHT22;2663;53.588;10.010;2023-03-23T17:39:54;12.80;99.90
5280;DHT22;2663;53.588;10.010;2023-03-23T17:42:20;12.90;99.90
5280;DHT22;2663;53.588;10.010;2023-03-23T17:44:47;12.80;99.90
5280;DHT22;2663;53.588;10.010;2023-03-23T17:47:14;12.90;99.90
5280;DHT22;2663;53.588;10.010;2023-03-23T17:49:41;12.90;99.90
5280;DHT22;2663;53.588;10.010;2023-03-23T17:52:07;12.90;99.90
5280;DHT22;2663;53.588;10.010;2023-03-23T17:54:34;13.00;99.90
5280;DHT22;2663;53.588;10.010;2023-03-23T17:57:01;13.70;99.90
5280;DHT22;2663;53.588;10.010;2023-03-23T17:59:29;14.10;99.90
5280;DHT22;2663;53.588;10.010;2023-03-23T18:01:56;14.50;99.90
5280;DHT22;2663;53.588;10.010;2023-03-23T18:04:23;14.50;99.90
5280;DHT22;2663;53.588;10.010;2023-03-23T18:06:55;14.10;99.90
5280;DHT22;2663;53.588;10.010;2023-03-23T18:09:23;13.80;99.90
5280;DHT22;2663;53.588;10.010;2023-03-23T18:11:51;13.50;99.90
5280;DHT22;2663;53.588;10.010;2023-03-23T18:14:18;13.30;99.90
5280;DHT22;2663;53.588;10.010;2023-03-23T18:16:45;13.10;99.90